createdAt,value
2022-07-28T00:00:34.767Z,0.00
2022-07-28T00:01:20.636Z,0.00
2022-07-28T00:02:06.744Z,0.00
2022-07-28T00:02:52.676Z,0.00
2022-07-28T00:03:38.631Z,0.00
2022-07-28T00:04:24.615Z,0.00
2022-07-28T00:05:10.650Z,0.00
2022-07-28T00:05:56.635Z,0.00
2022-07-28T00:06:42.679Z,0.00
2022-07-28T00:07:28.892Z,0.00
2022-07-28T00:08:14.661Z,0.00
2022-07-28T00:09:00.722Z,0.00
2022-07-28T00:09:46.747Z,0.00
2022-07-28T00:10:32.821Z,0.00
2022-07-28T00:11:18.880Z,0.00
2022-07-28T00:12:04.708Z,0.00
2022-07-28T00:12:50.654Z,0.00
2022-07-28T00:13:36.711Z,0.00
2022-07-28T00:14:22.692Z,0.00
2022-07-28T00:15:08.773Z,0.00
2022-07-28T00:15:54.746Z,0.00
2022-07-28T00:16:40.764Z,0.00
2022-07-28T00:17:26.680Z,0.00
2022-07-28T00:18:12.686Z,0.00
2022-07-28T00:18:58.739Z,0.00
2022-07-28T00:19:44.745Z,0.00
2022-07-28T00:20:36.534Z,0.00
2022-07-28T00:21:16.706Z,0.00
2022-07-28T00:22:02.779Z,0.00
2022-07-28T00:22:49.105Z,0.00
2022-07-28T00:23:39.594Z,0.00
2022-07-28T00:24:20.739Z,0.00
2022-07-28T00:25:06.762Z,0.00
2022-07-28T00:25:52.718Z,0.00
2022-07-28T00:26:38.714Z,0.00
2022-07-28T00:27:24.728Z,0.00
2022-07-28T00:28:13.243Z,0.00
2022-07-28T00:28:56.733Z,0.00
2022-07-28T00:29:49.639Z,0.00
2022-07-28T00:30:28.765Z,0.00
2022-07-28T00:31:14.824Z,0.00
2022-07-28T00:32:16.213Z,0.00
2022-07-28T00:32:46.776Z,0.00
2022-07-28T00:33:32.727Z,0.00
2022-07-28T00:34:18.745Z,0.00
2022-07-28T00:35:04.726Z,0.00
2022-07-28T00:35:50.742Z,0.00
2022-07-28T00:36:36.873Z,0.00
2022-07-28T00:37:22.756Z,0.00
2022-07-28T00:38:08.807Z,0.00
2022-07-28T00:38:54.762Z,0.00
2022-07-28T00:39:40.753Z,0.00
2022-07-28T00:40:26.820Z,0.00
2022-07-28T00:41:12.849Z,0.00
2022-07-28T00:41:58.759Z,0.00
2022-07-28T00:42:44.779Z,0.00
2022-07-28T00:43:30.837Z,0.00
2022-07-28T00:44:17.143Z,0.00
2022-07-28T00:45:03.099Z,0.00
2022-07-28T00:45:49.290Z,0.00
2022-07-28T00:46:50.290Z,0.00
2022-07-28T00:47:20.764Z,0.00
2022-07-28T00:48:06.810Z,0.00
2022-07-28T00:48:53.664Z,0.00
2022-07-28T00:49:38.776Z,0.00
2022-07-28T00:50:24.794Z,0.00
2022-07-28T00:51:10.775Z,0.00
2022-07-28T00:51:56.756Z,0.00
2022-07-28T00:52:42.802Z,0.00
2022-07-28T00:53:28.872Z,0.00
2022-07-28T00:54:15.014Z,0.00
2022-07-28T00:55:00.797Z,0.00
2022-07-28T00:56:05.548Z,0.00
2022-07-28T00:56:32.777Z,0.00
2022-07-28T00:57:18.798Z,0.00
2022-07-28T00:58:04.844Z,0.00
2022-07-28T00:58:50.800Z,0.00
2022-07-28T00:59:36.915Z,0.00
2022-07-28T01:00:22.931Z,0.00
2022-07-28T01:01:08.844Z,0.00
2022-07-28T01:01:55.007Z,0.00
2022-07-28T01:02:41.003Z,0.00
2022-07-28T01:03:26.830Z,0.00
2022-07-28T01:04:13.090Z,0.00
2022-07-28T01:04:58.820Z,0.00
2022-07-28T01:05:44.906Z,0.00
2022-07-28T01:06:30.883Z,0.00
2022-07-28T01:07:16.826Z,0.00
2022-07-28T01:08:03.018Z,0.00
2022-07-28T01:08:49.242Z,0.00
2022-07-28T01:09:34.889Z,0.00
2022-07-28T01:10:21.010Z,0.00
2022-07-28T01:11:06.867Z,0.00
2022-07-28T01:11:52.827Z,0.00
2022-07-28T01:12:38.909Z,0.00
2022-07-28T01:13:26.312Z,0.00
2022-07-28T01:14:11.188Z,0.00
2022-07-28T01:14:56.866Z,0.00
2022-07-28T01:15:42.934Z,0.00
2022-07-28T01:16:28.975Z,0.00
2022-07-28T01:17:14.865Z,0.00
2022-07-28T01:18:00.910Z,0.00
2022-07-28T01:18:46.874Z,0.00
2022-07-28T01:19:32.879Z,0.00
2022-07-28T01:20:18.941Z,0.00
2022-07-28T01:21:04.939Z,0.00
2022-07-28T01:21:50.887Z,0.00
2022-07-28T01:22:36.933Z,0.00
2022-07-28T01:23:22.853Z,0.00
2022-07-28T01:24:08.835Z,0.00
2022-07-28T01:24:54.868Z,0.00
2022-07-28T01:25:40.902Z,0.00
2022-07-28T01:26:26.892Z,0.00
2022-07-28T01:27:12.846Z,0.00
2022-07-28T01:27:58.880Z,0.00
2022-07-28T01:28:44.875Z,0.00
2022-07-28T01:29:31.037Z,0.00
2022-07-28T01:30:17.015Z,0.00
2022-07-28T01:31:03.195Z,0.00
2022-07-28T01:31:49.515Z,0.00
2022-07-28T01:32:34.927Z,0.00
2022-07-28T01:33:20.940Z,0.00
2022-07-28T01:34:06.931Z,0.00
2022-07-28T01:34:52.935Z,0.00
2022-07-28T01:35:38.923Z,0.00
2022-07-28T01:36:24.917Z,0.00
2022-07-28T01:37:10.925Z,0.00
2022-07-28T01:37:56.948Z,0.00
2022-07-28T01:38:42.973Z,0.00
2022-07-28T01:39:28.965Z,0.00
2022-07-28T01:40:14.892Z,0.00
2022-07-28T01:41:00.915Z,0.00
2022-07-28T01:41:46.931Z,0.00
2022-07-28T01:42:32.942Z,0.00
2022-07-28T01:43:18.931Z,0.00
2022-07-28T01:44:05.130Z,0.00
2022-07-28T01:44:50.912Z,0.00
2022-07-28T01:45:37.128Z,0.00
2022-07-28T01:46:23.045Z,0.00
2022-07-28T01:47:09.033Z,0.00
2022-07-28T01:47:54.954Z,0.00
2022-07-28T01:48:41.051Z,0.00
2022-07-28T01:49:27.111Z,0.00
2022-07-28T01:50:13.014Z,0.00
2022-07-28T01:50:58.948Z,0.00
2022-07-28T01:51:44.951Z,0.00
2022-07-28T01:52:31.061Z,0.00
2022-07-28T01:53:16.973Z,0.00
2022-07-28T01:54:03.083Z,0.00
2022-07-28T01:54:49.560Z,0.00
2022-07-28T01:55:34.984Z,0.00
2022-07-28T01:56:20.986Z,0.00
2022-07-28T01:57:06.979Z,0.00
2022-07-28T01:57:52.984Z,0.00
2022-07-28T01:58:38.986Z,0.00
2022-07-28T01:59:24.963Z,0.00
2022-07-28T02:00:11.084Z,0.00
2022-07-28T02:00:57.037Z,0.00
2022-07-28T02:01:43.038Z,0.00
2022-07-28T02:02:29.003Z,0.00
2022-07-28T02:03:14.953Z,0.00
2022-07-28T02:04:01.300Z,0.00
2022-07-28T02:04:47.049Z,0.00
2022-07-28T02:05:33.100Z,0.00
2022-07-28T02:06:18.995Z,0.00
2022-07-28T02:07:05.026Z,0.00
2022-07-28T02:07:51.070Z,0.00
2022-07-28T02:08:37.094Z,0.00
2022-07-28T02:09:23.002Z,0.00
2022-07-28T02:10:09.085Z,0.00
2022-07-28T02:10:55.052Z,0.00
2022-07-28T02:11:41.097Z,0.00
2022-07-28T02:12:27.088Z,0.00
2022-07-28T02:13:13.026Z,0.00
2022-07-28T02:13:59.038Z,0.00
2022-07-28T02:14:45.020Z,0.00
2022-07-28T02:15:31.262Z,0.00
2022-07-28T02:16:17.212Z,0.00
2022-07-28T02:17:03.191Z,0.00
2022-07-28T02:17:49.487Z,0.00
2022-07-28T02:18:35.109Z,0.00
2022-07-28T02:19:21.045Z,0.00
2022-07-28T02:20:07.066Z,0.00
2022-07-28T02:20:53.107Z,0.00
2022-07-28T02:21:39.074Z,0.00
2022-07-28T02:22:25.062Z,0.00
2022-07-28T02:23:11.072Z,0.00
2022-07-28T02:23:57.065Z,0.00
2022-07-28T02:24:43.122Z,0.00
2022-07-28T02:25:29.101Z,0.00
2022-07-28T02:26:15.053Z,0.00
2022-07-28T02:27:01.109Z,0.00
2022-07-28T02:27:47.073Z,0.00
2022-07-28T02:28:33.106Z,0.00
2022-07-28T02:29:47.958Z,0.00
2022-07-28T02:30:05.142Z,0.00
2022-07-28T02:30:51.126Z,0.00
2022-07-28T02:31:37.273Z,0.00
2022-07-28T02:32:27.039Z,0.00
2022-07-28T02:33:09.152Z,0.00
2022-07-28T02:33:58.582Z,0.00
2022-07-28T02:34:41.085Z,0.00
2022-07-28T02:35:29.116Z,0.00
2022-07-28T02:36:14.236Z,0.00
2022-07-28T02:36:59.051Z,0.00
2022-07-28T02:37:45.092Z,0.00
2022-07-28T02:38:31.146Z,0.00
2022-07-28T02:39:17.070Z,0.00
2022-07-28T02:40:03.182Z,0.00
2022-07-28T02:40:49.543Z,0.00
2022-07-28T02:41:35.097Z,0.00
2022-07-28T02:42:21.164Z,0.00
2022-07-28T02:43:07.116Z,0.00
2022-07-28T02:43:53.111Z,0.00
2022-07-28T02:44:39.107Z,0.00
2022-07-28T02:45:25.170Z,0.00
2022-07-28T02:46:11.239Z,0.00
2022-07-28T02:46:57.137Z,0.00
2022-07-28T02:47:43.128Z,0.00
2022-07-28T02:48:29.116Z,0.00
2022-07-28T02:49:15.173Z,0.00
2022-07-28T02:50:01.123Z,0.00
2022-07-28T02:50:47.126Z,0.00
2022-07-28T02:51:33.134Z,0.00
2022-07-28T02:52:19.128Z,0.00
2022-07-28T02:53:14.865Z,0.00
2022-07-28T02:53:51.171Z,0.00
2022-07-28T02:54:37.210Z,0.00
2022-07-28T02:55:23.110Z,0.00
2022-07-28T02:56:09.145Z,0.00
2022-07-28T02:56:55.146Z,0.00
2022-07-28T02:57:41.201Z,0.00
2022-07-28T02:58:27.178Z,0.00
2022-07-28T02:59:13.167Z,0.00
2022-07-28T02:59:59.162Z,0.00
2022-07-28T03:00:45.276Z,0.00
2022-07-28T03:01:31.270Z,0.00
2022-07-28T03:02:17.136Z,0.00
2022-07-28T03:03:03.412Z,0.00
2022-07-28T03:03:49.570Z,0.00
2022-07-28T03:04:35.276Z,0.00
2022-07-28T03:05:21.284Z,0.00
2022-07-28T03:06:07.341Z,0.00
2022-07-28T03:06:53.186Z,0.00
2022-07-28T03:07:41.603Z,0.00
2022-07-28T03:08:25.185Z,0.00
2022-07-28T03:09:11.209Z,0.00
2022-07-28T03:09:57.178Z,0.00
2022-07-28T03:10:43.211Z,0.00
2022-07-28T03:11:29.183Z,0.00
2022-07-28T03:12:15.238Z,0.00
2022-07-28T03:13:01.210Z,0.00
2022-07-28T03:13:47.197Z,0.00
2022-07-28T03:14:33.200Z,0.00
2022-07-28T03:15:19.277Z,0.00
2022-07-28T03:16:05.245Z,0.00
2022-07-28T03:16:55.377Z,0.00
2022-07-28T03:17:37.267Z,0.00
2022-07-28T03:18:23.222Z,0.00
2022-07-28T03:19:09.244Z,0.00
2022-07-28T03:19:55.226Z,0.00
2022-07-28T03:20:41.264Z,0.00
2022-07-28T03:21:27.227Z,0.00
2022-07-28T03:22:13.258Z,0.00
2022-07-28T03:22:59.254Z,0.00
2022-07-28T03:23:45.245Z,0.00
2022-07-28T03:24:31.270Z,0.00
2022-07-28T03:25:16.616Z,0.00
2022-07-28T03:26:03.381Z,0.00
2022-07-28T03:26:49.724Z,0.00
2022-07-28T03:27:35.242Z,0.00
2022-07-28T03:28:21.246Z,0.00
2022-07-28T03:29:07.315Z,0.00
2022-07-28T03:29:53.232Z,0.00
2022-07-28T03:30:39.335Z,0.00
2022-07-28T03:31:25.285Z,0.00
2022-07-28T03:32:11.274Z,0.00
2022-07-28T03:32:57.258Z,0.00
2022-07-28T03:33:43.297Z,0.00
2022-07-28T03:34:29.240Z,0.00
2022-07-28T03:35:15.353Z,0.00
2022-07-28T03:36:01.607Z,0.00
2022-07-28T03:36:47.260Z,0.00
2022-07-28T03:37:33.254Z,0.00
2022-07-28T03:38:19.280Z,0.00
2022-07-28T03:39:05.264Z,0.00
2022-07-28T03:39:51.247Z,0.00
2022-07-28T03:40:37.290Z,0.00
2022-07-28T03:41:23.238Z,0.00
2022-07-28T03:42:09.356Z,0.00
2022-07-28T03:42:55.244Z,0.00
2022-07-28T03:43:41.254Z,0.00
2022-07-28T03:44:29.072Z,0.00
2022-07-28T03:45:13.344Z,0.00
2022-07-28T03:45:59.401Z,0.00
2022-07-28T03:46:45.264Z,0.00
2022-07-28T03:47:31.365Z,0.00
2022-07-28T03:48:17.260Z,0.00
2022-07-28T03:49:03.476Z,0.00
2022-07-28T03:49:49.629Z,0.00
2022-07-28T03:50:35.397Z,0.00
2022-07-28T03:51:21.279Z,0.00
2022-07-28T03:52:07.288Z,0.00
2022-07-28T03:52:53.279Z,0.00
2022-07-28T03:53:39.285Z,0.00
2022-07-28T03:54:25.263Z,0.00
2022-07-28T03:55:11.362Z,0.00
2022-07-28T03:55:57.299Z,0.36
2022-07-28T03:56:43.358Z,0.00
2022-07-28T03:57:29.274Z,0.00
2022-07-28T03:58:15.281Z,0.00
2022-07-28T03:59:01.319Z,0.00
2022-07-28T03:59:47.277Z,0.00
2022-07-28T04:00:33.351Z,0.00
2022-07-28T04:01:19.439Z,0.00
2022-07-28T04:02:05.352Z,0.00
2022-07-28T04:02:51.436Z,0.00
2022-07-28T04:03:43.711Z,0.00
2022-07-28T04:04:23.321Z,0.00
2022-07-28T04:05:09.298Z,0.36
2022-07-28T04:05:55.376Z,0.36
2022-07-28T04:06:41.413Z,0.85
2022-07-28T04:07:27.324Z,0.36
2022-07-28T04:08:13.435Z,0.36
2022-07-28T04:08:59.356Z,0.00
2022-07-28T04:09:45.319Z,0.36
2022-07-28T04:10:31.423Z,1.22
2022-07-28T04:11:17.417Z,0.85
2022-07-28T04:12:03.708Z,1.22
2022-07-28T04:12:49.787Z,1.71
2022-07-28T04:13:35.412Z,1.22
2022-07-28T04:14:21.783Z,0.85
2022-07-28T04:15:07.457Z,1.22
2022-07-28T04:15:53.383Z,2.08
2022-07-28T04:16:39.456Z,2.08
2022-07-28T04:17:25.426Z,2.57
2022-07-28T04:18:11.470Z,2.57
2022-07-28T04:18:57.418Z,3.43
2022-07-28T04:19:43.372Z,2.57
2022-07-28T04:20:29.382Z,2.94
2022-07-28T04:21:15.440Z,3.43
2022-07-28T04:22:01.423Z,2.94
2022-07-28T04:22:47.468Z,4.28
2022-07-28T04:23:33.438Z,3.43
2022-07-28T04:24:19.682Z,3.43
2022-07-28T04:25:05.396Z,4.28
2022-07-28T04:25:51.401Z,3.79
2022-07-28T04:26:37.469Z,4.28
2022-07-28T04:27:23.429Z,3.79
2022-07-28T04:28:09.564Z,5.63
2022-07-28T04:28:55.391Z,4.77
2022-07-28T04:29:41.517Z,4.77
2022-07-28T04:30:27.609Z,5.99
2022-07-28T04:31:13.522Z,5.99
2022-07-28T04:31:59.402Z,5.63
2022-07-28T04:32:45.476Z,6.48
2022-07-28T04:33:31.477Z,6.48
2022-07-28T04:34:17.755Z,7.34
2022-07-28T04:35:03.623Z,6.85
2022-07-28T04:35:49.751Z,7.34
2022-07-28T04:36:35.486Z,8.19
2022-07-28T04:37:21.474Z,8.19
2022-07-28T04:38:07.440Z,8.56
2022-07-28T04:38:53.484Z,9.05
2022-07-28T04:39:39.472Z,8.56
2022-07-28T04:40:25.591Z,9.54
2022-07-28T04:41:11.472Z,10.39
2022-07-28T04:41:57.516Z,11.25
2022-07-28T04:42:43.460Z,10.77
2022-07-28T04:43:29.458Z,10.39
2022-07-28T04:44:15.895Z,11.25
2022-07-28T04:45:01.695Z,12.48
2022-07-28T04:45:53.271Z,12.11
2022-07-28T04:46:33.579Z,12.48
2022-07-28T04:47:19.496Z,13.33
2022-07-28T04:48:05.474Z,12.97
2022-07-28T04:48:51.552Z,13.82
2022-07-28T04:49:37.632Z,14.68
2022-07-28T04:50:23.471Z,14.31
2022-07-28T04:51:09.484Z,14.68
2022-07-28T04:51:57.423Z,15.17
2022-07-28T04:52:41.528Z,16.02
2022-07-28T04:53:27.469Z,17.25
2022-07-28T04:54:13.921Z,17.73
2022-07-28T04:54:59.501Z,17.73
2022-07-28T04:55:45.653Z,18.60
2022-07-28T04:56:31.487Z,19.94
2022-07-28T04:57:17.513Z,19.94
2022-07-28T04:58:03.724Z,19.94
2022-07-28T04:58:49.790Z,21.16
2022-07-28T04:59:35.515Z,22.02
2022-07-28T05:00:22.130Z,22.51
2022-07-28T05:01:07.618Z,23.36
2022-07-28T05:01:53.500Z,23.36
2022-07-28T05:02:39.505Z,23.85
2022-07-28T05:03:25.554Z,24.71
2022-07-28T05:04:11.939Z,24.22
2022-07-28T05:04:57.558Z,25.07
2022-07-28T05:05:43.565Z,25.56
2022-07-28T05:06:29.550Z,25.94
2022-07-28T05:07:15.544Z,27.65
2022-07-28T05:08:01.582Z,27.28
2022-07-28T05:08:47.578Z,28.14
2022-07-28T05:09:33.565Z,27.65
2022-07-28T05:10:19.547Z,28.99
2022-07-28T05:11:05.521Z,28.99
2022-07-28T05:11:51.560Z,30.34
2022-07-28T05:12:37.656Z,30.70
2022-07-28T05:13:23.515Z,30.70
2022-07-28T05:14:09.559Z,31.19
2022-07-28T05:14:55.552Z,32.05
2022-07-28T05:15:41.685Z,32.90
2022-07-28T05:16:27.596Z,32.42
2022-07-28T05:17:13.606Z,33.76
2022-07-28T05:17:59.601Z,33.76
2022-07-28T05:18:45.604Z,34.25
2022-07-28T05:19:31.632Z,34.25
2022-07-28T05:20:17.620Z,35.11
2022-07-28T05:21:03.715Z,36.33
2022-07-28T05:21:49.768Z,35.97
2022-07-28T05:22:35.599Z,36.82
2022-07-28T05:23:21.566Z,37.68
2022-07-28T05:24:07.650Z,37.68
2022-07-28T05:24:53.559Z,39.02
2022-07-28T05:25:39.599Z,39.39
2022-07-28T05:26:25.591Z,38.53
2022-07-28T05:27:11.584Z,39.88
2022-07-28T05:27:57.580Z,39.88
2022-07-28T05:28:43.626Z,40.24
2022-07-28T05:29:35.163Z,40.24
2022-07-28T05:30:15.687Z,39.88
2022-07-28T05:31:01.656Z,39.88
2022-07-28T05:31:47.657Z,39.88
2022-07-28T05:32:33.602Z,39.39
2022-07-28T05:33:19.622Z,39.39
2022-07-28T05:34:05.697Z,39.39
2022-07-28T05:34:51.657Z,39.88
2022-07-28T05:35:37.644Z,39.88
2022-07-28T05:36:23.660Z,39.39
2022-07-28T05:37:09.602Z,39.02
2022-07-28T05:37:55.666Z,38.53
2022-07-28T05:38:41.644Z,38.53
2022-07-28T05:39:27.622Z,39.02
2022-07-28T05:40:13.811Z,39.39
2022-07-28T05:40:59.614Z,39.39
2022-07-28T05:41:45.625Z,40.24
2022-07-28T05:42:31.652Z,41.59
2022-07-28T05:43:17.651Z,42.45
2022-07-28T05:44:03.815Z,44.16
2022-07-28T05:44:49.759Z,45.02
2022-07-28T05:45:35.843Z,46.73
2022-07-28T05:46:21.700Z,49.42
2022-07-28T05:47:07.640Z,50.28
2022-07-28T05:47:53.647Z,52.48
2022-07-28T05:48:39.779Z,54.19
2022-07-28T05:49:25.716Z,61.53
2022-07-28T05:50:11.745Z,59.33
2022-07-28T05:50:57.670Z,62.88
2022-07-28T05:51:43.709Z,62.88
2022-07-28T05:52:29.677Z,64.10
2022-07-28T05:53:15.890Z,65.45
2022-07-28T05:54:01.815Z,66.31
2022-07-28T05:54:47.672Z,68.87
2022-07-28T05:55:33.770Z,71.07
2022-07-28T05:56:19.663Z,73.65
2022-07-28T05:57:05.700Z,75.48
2022-07-28T05:57:51.659Z,78.05
2022-07-28T05:58:37.791Z,80.62
2022-07-28T05:59:39.086Z,82.33
2022-07-28T06:00:09.779Z,99.70
2022-07-28T06:00:55.707Z,91.02
2022-07-28T06:01:41.743Z,90.16
2022-07-28T06:02:27.737Z,97.13
2022-07-28T06:03:13.766Z,103.13
2022-07-28T06:04:24.285Z,102.27
2022-07-28T06:04:45.680Z,104.48
2022-07-28T06:05:31.735Z,102.76
2022-07-28T06:06:17.726Z,111.44
2022-07-28T06:07:03.996Z,125.76
2022-07-28T06:07:49.943Z,120.13
2022-07-28T06:08:35.828Z,107.53
2022-07-28T06:09:21.843Z,127.10
2022-07-28T06:10:07.715Z,92.36
2022-07-28T06:10:53.718Z,90.16
2022-07-28T06:11:39.701Z,89.31
2022-07-28T06:12:25.752Z,91.51
2022-07-28T06:13:11.885Z,121.36
2022-07-28T06:13:57.706Z,111.82
2022-07-28T06:14:43.756Z,99.34
2022-07-28T06:15:29.846Z,100.56
2022-07-28T06:16:15.898Z,133.59
2022-07-28T06:17:01.900Z,142.64
2022-07-28T06:17:47.868Z,161.73
2022-07-28T06:18:33.915Z,157.44
2022-07-28T06:19:19.864Z,161.36
2022-07-28T06:20:05.845Z,133.10
2022-07-28T06:20:51.911Z,167.85
2022-07-28T06:21:37.908Z,157.44
2022-07-28T06:22:23.838Z,137.51
2022-07-28T06:23:09.860Z,128.33
2022-07-28T06:23:55.967Z,124.41
2022-07-28T06:24:41.937Z,122.34
2022-07-28T06:25:27.973Z,120.50
2022-07-28T06:26:13.870Z,116.22
2022-07-28T06:26:59.764Z,109.24
2022-07-28T06:27:45.754Z,104.96
2022-07-28T06:28:31.921Z,129.68
2022-07-28T06:29:17.786Z,108.88
2022-07-28T06:30:04.065Z,101.41
2022-07-28T06:30:50.034Z,90.16
2022-07-28T06:31:36.002Z,86.73
2022-07-28T06:32:21.787Z,85.88
2022-07-28T06:33:07.839Z,84.53
2022-07-28T06:33:53.767Z,83.68
2022-07-28T06:34:39.786Z,83.68
2022-07-28T06:35:25.821Z,85.88
2022-07-28T06:36:11.816Z,88.82
2022-07-28T06:36:57.782Z,94.93
2022-07-28T06:37:43.827Z,101.90
2022-07-28T06:38:29.796Z,109.24
2022-07-28T06:39:15.804Z,115.73
2022-07-28T06:40:02.039Z,124.41
2022-07-28T06:40:47.941Z,135.30
2022-07-28T06:41:34.044Z,145.21
2022-07-28T06:42:20.088Z,153.53
2022-07-28T06:43:05.934Z,148.27
2022-07-28T06:43:51.992Z,186.93
2022-07-28T06:44:57.900Z,199.90
2022-07-28T06:45:24.055Z,165.27
2022-07-28T06:46:09.947Z,226.44
2022-07-28T06:46:56.027Z,158.30
2022-07-28T06:47:45.815Z,167.36
2022-07-28T06:48:29.455Z,264.98
2022-07-28T06:49:14.364Z,158.67
2022-07-28T06:49:59.907Z,150.47
2022-07-28T06:50:46.038Z,156.59
2022-07-28T06:51:31.948Z,261.07
2022-07-28T06:52:17.972Z,185.58
2022-07-28T06:53:04.126Z,144.36
2022-07-28T06:53:50.084Z,144.36
2022-07-28T06:54:36.017Z,164.78
2022-07-28T06:55:22.063Z,148.76
2022-07-28T06:56:07.951Z,139.58
2022-07-28T06:56:53.921Z,147.90
2022-07-28T06:57:39.982Z,131.88
2022-07-28T06:58:25.992Z,134.81
2022-07-28T06:59:12.357Z,143.99
2022-07-28T06:59:58.031Z,194.27
2022-07-28T07:00:44.064Z,256.78
2022-07-28T07:01:30.051Z,191.70
2022-07-28T07:02:16.062Z,175.67
2022-07-28T07:03:02.117Z,163.07
2022-07-28T07:03:48.092Z,149.98
2022-07-28T07:04:34.002Z,155.73
2022-07-28T07:05:20.054Z,165.64
2022-07-28T07:06:06.105Z,171.76
2022-07-28T07:06:51.973Z,182.15
2022-07-28T07:07:42.802Z,209.07
2022-07-28T07:08:24.017Z,167.85
2022-07-28T07:09:10.003Z,180.44
2022-07-28T07:09:56.030Z,168.21
2022-07-28T07:10:42.008Z,171.27
2022-07-28T07:11:28.052Z,156.10
2022-07-28T07:12:13.988Z,152.68
2022-07-28T07:13:00.017Z,149.98
2022-07-28T07:13:46.104Z,147.05
2022-07-28T07:14:32.031Z,146.19
2022-07-28T07:15:18.091Z,145.21
2022-07-28T07:16:04.277Z,146.56
2022-07-28T07:16:50.042Z,146.56
2022-07-28T07:17:36.106Z,148.76
2022-07-28T07:18:22.232Z,151.33
2022-07-28T07:19:11.426Z,153.90
2022-07-28T07:19:54.030Z,165.27
2022-07-28T07:20:40.135Z,177.75
2022-07-28T07:21:26.009Z,182.15
2022-07-28T07:22:12.031Z,157.44
2022-07-28T07:22:57.984Z,154.39
2022-07-28T07:23:44.065Z,261.55
2022-07-28T07:24:30.132Z,253.24
2022-07-28T07:25:16.047Z,243.69
2022-07-28T07:26:02.216Z,166.99
2022-07-28T07:26:48.129Z,156.95
2022-07-28T07:27:34.140Z,156.10
2022-07-28T07:28:20.106Z,158.30
2022-07-28T07:29:06.103Z,164.78
2022-07-28T07:29:52.062Z,168.70
2022-07-28T07:30:38.188Z,183.50
2022-07-28T07:31:24.191Z,331.40
2022-07-28T07:32:10.845Z,426.34
2022-07-28T07:32:56.098Z,195.12
2022-07-28T07:33:42.074Z,279.78
2022-07-28T07:34:28.144Z,260.21
2022-07-28T07:35:14.102Z,155.24
2022-07-28T07:36:00.108Z,152.19
2022-07-28T07:36:46.113Z,163.07
2022-07-28T07:37:32.050Z,160.02
2022-07-28T07:38:18.145Z,159.53
2022-07-28T07:39:04.247Z,164.29
2022-07-28T07:39:50.072Z,177.39
2022-07-28T07:40:36.099Z,231.22
2022-07-28T07:41:22.197Z,191.70
2022-07-28T07:42:08.298Z,200.75
2022-07-28T07:42:54.142Z,189.13
2022-07-28T07:43:42.379Z,218.61
2022-07-28T07:44:26.104Z,216.41
2022-07-28T07:45:12.254Z,257.15
2022-07-28T07:45:58.125Z,224.24
2022-07-28T07:46:44.252Z,257.15
2022-07-28T07:47:30.568Z,410.32
2022-07-28T07:48:16.107Z,473.20
2022-07-28T07:49:02.239Z,402.98
2022-07-28T07:49:48.365Z,363.46
2022-07-28T07:50:34.269Z,359.54
2022-07-28T07:51:20.151Z,303.15
2022-07-28T07:52:06.089Z,298.01
2022-07-28T07:52:52.179Z,279.78
2022-07-28T07:53:38.178Z,217.76
2022-07-28T07:54:24.223Z,222.04
2022-07-28T07:55:10.198Z,249.81
2022-07-28T07:55:56.117Z,222.04
2022-07-28T07:56:42.174Z,305.84
2022-07-28T07:57:28.171Z,424.26
2022-07-28T07:58:14.162Z,362.12
2022-07-28T07:59:00.142Z,375.20
2022-07-28T07:59:46.155Z,455.82
2022-07-28T08:00:32.314Z,391.23
2022-07-28T08:01:18.266Z,336.54
2022-07-28T08:02:04.452Z,305.84
2022-07-28T08:02:50.152Z,334.47
2022-07-28T08:03:36.318Z,369.08
2022-07-28T08:04:25.276Z,390.37
2022-07-28T08:05:08.236Z,487.14
2022-07-28T08:05:54.146Z,470.13
2022-07-28T08:06:40.226Z,472.34
2022-07-28T08:07:26.274Z,445.91
2022-07-28T08:08:12.245Z,516.62
2022-07-28T08:08:58.215Z,532.65
2022-07-28T08:09:44.195Z,422.91
2022-07-28T08:10:30.309Z,471.11
2022-07-28T08:11:16.213Z,369.57
2022-07-28T08:12:02.198Z,504.88
2022-07-28T08:12:48.298Z,560.91
2022-07-28T08:13:34.160Z,569.96
2022-07-28T08:14:20.196Z,575.59
2022-07-28T08:15:06.226Z,579.50
2022-07-28T08:15:52.358Z,580.36
2022-07-28T08:16:38.348Z,579.50
2022-07-28T08:17:26.249Z,574.74
2022-07-28T08:18:10.279Z,573.88
2022-07-28T08:18:56.204Z,570.82
2022-07-28T08:19:42.215Z,573.88
2022-07-28T08:20:28.270Z,559.57
2022-07-28T08:21:14.257Z,522.25
2022-07-28T08:22:00.215Z,489.34
2022-07-28T08:22:46.226Z,500.96
2022-07-28T08:23:32.304Z,497.91
2022-07-28T08:24:32.864Z,516.99
2022-07-28T08:25:04.457Z,538.28
2022-07-28T08:25:50.285Z,553.08
2022-07-28T08:26:36.346Z,562.99
2022-07-28T08:27:22.200Z,573.88
2022-07-28T08:28:08.241Z,579.14
2022-07-28T08:28:54.214Z,582.08
2022-07-28T08:29:40.241Z,588.19
2022-07-28T08:30:30.328Z,584.28
2022-07-28T08:31:12.372Z,581.70
2022-07-28T08:31:58.203Z,584.77
2022-07-28T08:32:44.252Z,582.93
2022-07-28T08:33:30.251Z,586.84
2022-07-28T08:34:31.587Z,598.59
2022-07-28T08:35:30.435Z,602.99
2022-07-28T08:35:48.308Z,603.85
2022-07-28T08:36:34.344Z,606.42
2022-07-28T08:37:20.261Z,609.48
2022-07-28T08:38:06.340Z,614.62
2022-07-28T08:38:52.265Z,620.24
2022-07-28T08:39:41.048Z,626.36
2022-07-28T08:40:27.465Z,624.65
2022-07-28T08:41:10.300Z,629.42
2022-07-28T08:41:56.331Z,635.04
2022-07-28T08:42:42.436Z,641.53
2022-07-28T08:43:28.323Z,645.07
2022-07-28T08:44:14.551Z,641.53
2022-07-28T08:45:01.359Z,636.39
2022-07-28T08:45:46.343Z,648.87
2022-07-28T08:46:32.380Z,641.53
2022-07-28T08:47:18.302Z,646.79
2022-07-28T08:48:09.058Z,644.10
2022-07-28T08:48:50.300Z,635.90
2022-07-28T08:49:36.419Z,630.28
2022-07-28T08:50:22.350Z,627.21
2022-07-28T08:51:08.359Z,628.93
2022-07-28T08:51:54.358Z,633.33
2022-07-28T08:52:40.364Z,638.11
2022-07-28T08:53:26.355Z,604.21
2022-07-28T08:54:12.779Z,358.32
2022-07-28T08:54:58.343Z,377.77
2022-07-28T08:55:51.618Z,544.40
2022-07-28T08:56:30.548Z,511.37
2022-07-28T08:57:16.317Z,420.35
2022-07-28T08:58:02.295Z,341.32
2022-07-28T08:58:48.295Z,350.00
2022-07-28T08:59:34.573Z,493.62
2022-07-28T09:00:20.946Z,526.16
2022-07-28T09:01:06.353Z,605.93
2022-07-28T09:01:57.245Z,621.59
2022-07-28T09:02:41.560Z,632.84
2022-07-28T09:03:39.895Z,638.96
2022-07-28T09:04:10.383Z,637.62
2022-07-28T09:04:56.508Z,639.33
2022-07-28T09:05:42.389Z,635.90
2022-07-28T09:06:28.406Z,634.55
2022-07-28T09:07:14.378Z,636.39
2022-07-28T09:08:00.621Z,622.45
2022-07-28T09:08:46.385Z,557.36
2022-07-28T09:09:32.394Z,568.25
2022-07-28T09:10:18.594Z,550.02
2022-07-28T09:11:11.931Z,612.90
2022-07-28T09:11:50.387Z,613.39
2022-07-28T09:12:36.483Z,621.22
2022-07-28T09:13:22.357Z,622.08
2022-07-28T09:14:08.427Z,625.50
2022-07-28T09:14:54.514Z,642.38
2022-07-28T09:15:40.563Z,645.45
2022-07-28T09:16:26.455Z,654.62
2022-07-28T09:17:12.477Z,661.10
2022-07-28T09:17:58.435Z,667.96
2022-07-28T09:18:44.424Z,671.01
2022-07-28T09:19:34.383Z,667.96
2022-07-28T09:20:16.400Z,668.93
2022-07-28T09:21:02.416Z,668.45
2022-07-28T09:21:48.410Z,662.82
2022-07-28T09:22:34.493Z,671.50
2022-07-28T09:23:42.076Z,669.79
2022-07-28T09:24:06.390Z,667.10
2022-07-28T09:24:52.373Z,665.02
2022-07-28T09:25:38.497Z,667.58
2022-07-28T09:26:24.418Z,663.67
2022-07-28T09:27:10.447Z,660.62
2022-07-28T09:27:56.472Z,661.10
2022-07-28T09:28:42.477Z,661.47
2022-07-28T09:29:28.459Z,674.07
2022-07-28T09:30:14.539Z,683.24
2022-07-28T09:31:00.617Z,684.47
2022-07-28T09:31:46.541Z,684.47
2022-07-28T09:32:32.466Z,683.24
2022-07-28T09:33:40.996Z,671.50
2022-07-28T09:34:04.630Z,665.02
2022-07-28T09:34:51.896Z,651.93
2022-07-28T09:35:36.499Z,650.70
2022-07-28T09:36:23.364Z,646.30
2022-07-28T09:37:08.449Z,640.31
2022-07-28T09:37:54.686Z,635.04
2022-07-28T09:38:40.504Z,635.53
2022-07-28T09:39:26.449Z,644.10
2022-07-28T09:40:12.641Z,647.16
2022-07-28T09:40:58.482Z,654.62
2022-07-28T09:41:44.488Z,658.90
2022-07-28T09:43:16.642Z,666.73
2022-07-28T09:44:02.813Z,682.39
2022-07-28T09:45:12.859Z,700.50
2022-07-28T09:45:34.611Z,705.75
2022-07-28T09:46:20.684Z,705.75
2022-07-28T09:47:06.575Z,709.18
2022-07-28T09:47:52.685Z,702.70
2022-07-28T09:48:38.677Z,724.35
2022-07-28T09:49:28.769Z,732.18
2022-07-28T09:50:10.635Z,741.72
2022-07-28T09:50:56.489Z,746.12
2022-07-28T09:51:42.531Z,750.90
2022-07-28T09:52:28.543Z,746.99
2022-07-28T09:53:14.539Z,756.89
2022-07-28T09:54:00.657Z,767.41
2022-07-28T09:54:46.788Z,780.38
2022-07-28T09:55:32.579Z,777.81